createdAt,value
2023-03-24T00:10:12.526Z,2109.79199
2023-03-24T00:25:14.524Z,1778.86902
2023-03-24T00:40:16.614Z,3356.14136
2023-03-24T00:55:18.717Z,2378.58765
2023-03-24T01:10:20.809Z,1868.89026
2023-03-24T01:25:22.811Z,1453.0177
2023-03-24T01:40:24.945Z,838.08441
2023-03-24T01:55:27.066Z,314.44016
2023-03-24T02:10:29.154Z,59.59148
2023-03-24T02:25:31.175Z,3.80371
2023-03-24T02:40:33.227Z,0
2023-03-24T02:55:35.327Z,0
2023-03-24T03:10:37.664Z,0
2023-03-24T03:25:39.646Z,0
2023-03-24T03:40:41.675Z,0
2023-03-24T03:55:43.895Z,0
2023-03-24T04:10:46.013Z,0
2023-03-24T04:25:48.057Z,0
2023-03-24T04:40:50.056Z,0
2023-03-24T04:55:52.161Z,0
2023-03-24T05:10:54.155Z,0
2023-03-24T05:25:56.192Z,0
2023-03-24T05:40:58.238Z,0
2023-03-24T05:56:00.290Z,0
2023-03-24T06:11:02.258Z,0
2023-03-24T06:26:04.307Z,0
2023-03-24T06:41:06.317Z,0
2023-03-24T06:56:08.387Z,0
2023-03-24T07:11:10.485Z,0
2023-03-24T07:26:12.513Z,0
2023-03-24T07:41:14.519Z,0
2023-03-24T07:56:16.729Z,0
2023-03-24T08:11:18.746Z,0
2023-03-24T08:26:20.745Z,0
2023-03-24T08:41:22.981Z,0
2023-03-24T08:56:25.031Z,0
2023-03-24T09:11:27.096Z,0
2023-03-24T09:26:29.206Z,0
2023-03-24T09:41:32.553Z,0
2023-03-24T09:56:36.544Z,0
2023-03-24T10:11:38.559Z,0
2023-03-24T10:26:40.697Z,0
2023-03-24T10:41:42.781Z,0
2023-03-24T10:56:45.035Z,0
2023-03-24T11:11:47.110Z,0
2023-03-24T11:26:49.219Z,0
2023-03-24T11:41:51.268Z,0
2023-03-24T11:56:53.490Z,0
2023-03-24T12:11:55.531Z,0
2023-03-24T12:26:57.543Z,0
2023-03-24T12:41:59.605Z,0
2023-03-24T12:57:01.603Z,0
2023-03-24T13:12:03.633Z,0
2023-03-24T13:27:05.680Z,2.53581
2023-03-24T13:42:07.722Z,34.2334
2023-03-24T13:57:09.804Z,92.55698
2023-03-24T14:12:11.975Z,271.33142
2023-03-24T14:27:13.980Z,486.87506
2023-03-24T14:42:16.016Z,753.13489
2023-03-24T14:57:18.232Z,925.56976
2023-03-24T15:12:20.237Z,1318.62
2023-03-24T15:27:22.278Z,1980.4657
2023-03-24T15:42:24.481Z,2532.00391
2023-03-24T15:57:26.652Z,2885.74902
2023-03-24T16:12:28.802Z,3176.09912
2023-03-24T16:27:30.816Z,3397.98218
2023-03-24T16:42:32.896Z,3701.01123
2023-03-24T16:57:35.735Z,3203.99292
2023-03-24T17:12:39.420Z,3515.89722
2023-03-24T17:27:41.503Z,2665.13379
2023-03-24T17:42:45.798Z,3572.95288
2023-03-24T17:57:48.527Z,3817.65845
2023-03-24T18:12:50.893Z,4851
2023-03-24T18:27:52.941Z,3759.33472
2023-03-24T18:42:55.097Z,3878.51782
2023-03-24T18:57:57.130Z,3557.73804
2023-03-24T19:12:59.169Z,3562.80957
2023-03-24T19:28:01.165Z,4660.81445
2023-03-24T19:43:03.143Z,3116.50757
2023-03-24T19:58:05.210Z,3415.73291
2023-03-24T20:13:07.339Z,4219.58398
2023-03-24T20:28:09.381Z,3666.77783
2023-03-24T20:43:11.597Z,4641.7959
2023-03-24T20:58:13.629Z,4409.76953
2023-03-24T21:13:16.908Z,5296.03418
2023-03-24T21:28:19.249Z,5277.01562
2023-03-24T21:43:21.280Z,2960.55542
2023-03-24T21:58:23.383Z,1350.3175
2023-03-24T22:13:25.399Z,1740.83191
2023-03-24T22:28:27.484Z,4786.33691
2023-03-24T22:43:29.548Z,5246.58594
2023-03-24T22:58:31.634Z,3820.19409
2023-03-24T23:13:33.678Z,2368.44434
2023-03-24T23:28:35.743Z,3149.47314
2023-03-24T23:43:37.732Z,2719.65356
2023-03-24T23:58:40.000Z,1758.58252
